DLH3825 EDDF-LPPR
Flight info
| Callsign | DLH3825 |
|---|---|
| Flight time | 2h 26m |
| Altitude | 35000 |
| Route | SOBRA2L/18 SOBRA Y180 DIK UN857 TOLVU DCT RAPOR DCT GIMER DCT ESTOC UT300 PON UN872 GODIX/N0418F310 UN872 DIDAK/N0436F350 UN872 ERIGA UZ218 FUJTI DCT ATLEN DCT INSID T326 ASPOR |
| Aircraft | A320/M-SDE3FGHIRWY/LB1 |
Departure
| Time | 2026-05-06 16:04 |
|---|---|
| Airport | Frankfurt Main Airport (EDDF) |
Arrival
| Time | 2026-05-06 18:31 |
|---|---|
| Airport | Francisco de Sá Carneiro Airport (LPPR) |
| Time | Latitude | Longitude | Altitude | Speed | Heading |
|---|---|---|---|---|---|
| 2026-05-06 15:37 | 50.04403 | 8.56222 | 356 ft | 0 kts | 160° |
| 2026-05-06 15:48 | 50.04407 | 8.56219 | 363 ft | 2 kts | 160° |
| 2026-05-06 15:48 | 50.04423 | 8.56210 | 360 ft | 2 kts | 160° |
| 2026-05-06 15:48 | 50.04440 | 8.56203 | 361 ft | 3 kts | 180° |
| 2026-05-06 15:48 | 50.04457 | 8.56205 | 363 ft | 3 kts | 204° |
| 2026-05-06 15:49 | 50.04470 | 8.56217 | 361 ft | 0 kts | 217° |
| 2026-05-06 15:49 | 50.04481 | 8.56234 | 362 ft | 1 kts | 248° |
| 2026-05-06 15:54 | 50.04472 | 8.56196 | 356 ft | 13 kts | 249° |
| 2026-05-06 15:54 | 50.04433 | 8.56055 | 360 ft | 14 kts | 232° |
| 2026-05-06 15:54 | 50.04350 | 8.56049 | 358 ft | 11 kts | 156° |
| 2026-05-06 15:54 | 50.04292 | 8.56111 | 358 ft | 9 kts | 117° |
| 2026-05-06 15:55 | 50.04312 | 8.56243 | 361 ft | 19 kts | 69° |
| 2026-05-06 15:55 | 50.04348 | 8.56397 | 358 ft | 0 kts | 70° |
| 2026-05-06 15:55 | 50.04355 | 8.56427 | 356 ft | 5 kts | 70° |
| 2026-05-06 15:56 | 50.04363 | 8.56460 | 359 ft | 5 kts | 69° |
| 2026-05-06 15:56 | 50.04354 | 8.56565 | 361 ft | 7 kts | 141° |
| 2026-05-06 15:56 | 50.04311 | 8.56596 | 360 ft | 7 kts | 159° |
| 2026-05-06 15:56 | 50.04225 | 8.56622 | 356 ft | 14 kts | 201° |
| 2026-05-06 15:57 | 50.04177 | 8.56486 | 360 ft | 16 kts | 249° |
| 2026-05-06 15:57 | 50.04133 | 8.56302 | 356 ft | 19 kts | 250° |
| 2026-05-06 15:57 | 50.04092 | 8.56132 | 357 ft | 17 kts | 249° |
| 2026-05-06 15:57 | 50.04050 | 8.55956 | 353 ft | 18 kts | 252° |
| 2026-05-06 15:58 | 50.04006 | 8.55767 | 357 ft | 19 kts | 251° |
| 2026-05-06 15:58 | 50.03961 | 8.55583 | 356 ft | 18 kts | 250° |
| 2026-05-06 15:58 | 50.03922 | 8.55419 | 356 ft | 18 kts | 250° |
| 2026-05-06 15:58 | 50.03876 | 8.55228 | 358 ft | 19 kts | 249° |
| 2026-05-06 15:59 | 50.03829 | 8.55031 | 353 ft | 20 kts | 250° |
| 2026-05-06 15:59 | 50.03785 | 8.54852 | 350 ft | 14 kts | 250° |
| 2026-05-06 15:59 | 50.03752 | 8.54706 | 350 ft | 15 kts | 248° |
| 2026-05-06 15:59 | 50.03715 | 8.54554 | 351 ft | 13 kts | 253° |
| 2026-05-06 16:00 | 50.03688 | 8.54434 | 352 ft | 11 kts | 248° |
| 2026-05-06 16:00 | 50.03668 | 8.54356 | 348 ft | 0 kts | 249° |
| 2026-05-06 16:00 | 50.03661 | 8.54327 | 345 ft | 9 kts | 248° |
| 2026-05-06 16:01 | 50.03634 | 8.54220 | 347 ft | 11 kts | 250° |
| 2026-05-06 16:01 | 50.03606 | 8.54098 | 350 ft | 13 kts | 250° |
| 2026-05-06 16:01 | 50.03573 | 8.53959 | 338 ft | 15 kts | 249° |
| 2026-05-06 16:01 | 50.03538 | 8.53815 | 337 ft | 14 kts | 250° |
| 2026-05-06 16:02 | 50.03501 | 8.53657 | 336 ft | 16 kts | 250° |
| 2026-05-06 16:02 | 50.03461 | 8.53486 | 335 ft | 17 kts | 250° |
| 2026-05-06 16:02 | 50.03418 | 8.53307 | 336 ft | 18 kts | 249° |
| 2026-05-06 16:02 | 50.03371 | 8.53116 | 334 ft | 20 kts | 251° |
| 2026-05-06 16:03 | 50.03323 | 8.52913 | 333 ft | 21 kts | 248° |
| 2026-05-06 16:03 | 50.03272 | 8.52702 | 332 ft | 21 kts | 247° |
| 2026-05-06 16:03 | 50.03181 | 8.52594 | 334 ft | 14 kts | 180° |
| 2026-05-06 16:03 | 50.03172 | 8.52594 | 336 ft | 0 kts | 177° |
| 2026-05-06 16:04 | 50.03082 | 8.52598 | 336 ft | 45 kts | 181° |
| 2026-05-06 16:04 | 50.02489 | 8.52601 | 336 ft | 123 kts | 179° |
| 2026-05-06 16:04 | 50.01420 | 8.52618 | 387 ft | 177 kts | 182° |
| 2026-05-06 16:04 | 50.00209 | 8.52626 | 1299 ft | 173 kts | 181° |
| 2026-05-06 16:05 | 49.98976 | 8.52681 | 2135 ft | 182 kts | 182° |
| 2026-05-06 16:05 | 49.97664 | 8.52761 | 2889 ft | 198 kts | 181° |
| 2026-05-06 16:05 | 49.96253 | 8.52860 | 3402 ft | 210 kts | 180° |
| 2026-05-06 16:05 | 49.94731 | 8.52969 | 3792 ft | 226 kts | 180° |
| 2026-05-06 16:06 | 49.93139 | 8.53082 | 4003 ft | 230 kts | 180° |
| 2026-05-06 16:06 | 49.91548 | 8.53195 | 4030 ft | 229 kts | 180° |
| 2026-05-06 16:06 | 49.89952 | 8.53308 | 4032 ft | 229 kts | 180° |
| 2026-05-06 16:06 | 49.88360 | 8.53418 | 4028 ft | 229 kts | 181° |
| 2026-05-06 16:07 | 49.86789 | 8.53156 | 4037 ft | 235 kts | 199° |
| 2026-05-06 16:07 | 49.85193 | 8.52250 | 4430 ft | 253 kts | 202° |
| 2026-05-06 16:07 | 49.83520 | 8.51295 | 5105 ft | 259 kts | 201° |
| 2026-05-06 16:07 | 49.81816 | 8.50339 | 5919 ft | 262 kts | 201° |
| 2026-05-06 16:08 | 49.80086 | 8.49371 | 6679 ft | 265 kts | 201° |
| 2026-05-06 16:08 | 49.78353 | 8.48370 | 7407 ft | 268 kts | 206° |
| 2026-05-06 16:08 | 49.76869 | 8.46659 | 8149 ft | 268 kts | 231° |
| 2026-05-06 16:08 | 49.76007 | 8.44114 | 8888 ft | 271 kts | 256° |
| 2026-05-06 16:09 | 49.75953 | 8.41198 | 9587 ft | 277 kts | 280° |
| 2026-05-06 16:09 | 49.76421 | 8.38258 | 10115 ft | 288 kts | 282° |
| 2026-05-06 16:09 | 49.76931 | 8.35170 | 10438 ft | 304 kts | 282° |
| 2026-05-06 16:09 | 49.77463 | 8.31924 | 10750 ft | 321 kts | 282° |
| 2026-05-06 16:10 | 49.78020 | 8.28503 | 11174 ft | 332 kts | 282° |
| 2026-05-06 16:10 | 49.78583 | 8.25017 | 11802 ft | 336 kts | 282° |
| 2026-05-06 16:10 | 49.79150 | 8.21500 | 12481 ft | 339 kts | 282° |
| 2026-05-06 16:10 | 49.79720 | 8.17946 | 13137 ft | 342 kts | 282° |
| 2026-05-06 16:11 | 49.80293 | 8.14354 | 13766 ft | 345 kts | 282° |
| 2026-05-06 16:11 | 49.80868 | 8.10716 | 14317 ft | 349 kts | 282° |
| 2026-05-06 16:11 | 49.81438 | 8.07103 | 14871 ft | 352 kts | 282° |
| 2026-05-06 16:11 | 49.82031 | 8.03365 | 15419 ft | 356 kts | 282° |
| 2026-05-06 16:12 | 49.82627 | 7.99616 | 15968 ft | 359 kts | 282° |
| 2026-05-06 16:12 | 49.83225 | 7.95843 | 16510 ft | 362 kts | 282° |
| 2026-05-06 16:12 | 49.83825 | 7.92036 | 17044 ft | 366 kts | 282° |
| 2026-05-06 16:12 | 49.84421 | 7.88237 | 17606 ft | 370 kts | 282° |
| 2026-05-06 16:13 | 49.85027 | 7.84337 | 18217 ft | 374 kts | 282° |
| 2026-05-06 16:13 | 49.85638 | 7.80404 | 18720 ft | 377 kts | 282° |
| 2026-05-06 16:13 | 49.86256 | 7.76444 | 19243 ft | 379 kts | 282° |
| 2026-05-06 16:13 | 49.86883 | 7.72455 | 19746 ft | 382 kts | 282° |
| 2026-05-06 16:14 | 49.87513 | 7.68444 | 20218 ft | 384 kts | 282° |
| 2026-05-06 16:14 | 49.88143 | 7.64407 | 20701 ft | 387 kts | 282° |
| 2026-05-06 16:14 | 49.88776 | 7.60338 | 21190 ft | 389 kts | 282° |
| 2026-05-06 16:14 | 49.89195 | 7.57626 | 21511 ft | 391 kts | 282° |
| 2026-05-06 16:15 | 49.89830 | 7.53505 | 21982 ft | 393 kts | 282° |
| 2026-05-06 16:15 | 49.90466 | 7.49359 | 22448 ft | 396 kts | 282° |
| 2026-05-06 16:15 | 49.91102 | 7.45193 | 22908 ft | 398 kts | 282° |
| 2026-05-06 16:15 | 49.91740 | 7.41007 | 23348 ft | 401 kts | 282° |
| 2026-05-06 16:16 | 49.92382 | 7.36786 | 23719 ft | 403 kts | 282° |
| 2026-05-06 16:16 | 49.93028 | 7.32540 | 24093 ft | 406 kts | 282° |
| 2026-05-06 16:16 | 49.93677 | 7.28267 | 24444 ft | 408 kts | 282° |
| 2026-05-06 16:16 | 49.94326 | 7.23968 | 24762 ft | 410 kts | 282° |
| 2026-05-06 16:17 | 49.94976 | 7.19646 | 25087 ft | 412 kts | 281° |
| 2026-05-06 16:17 | 49.95626 | 7.15306 | 25401 ft | 414 kts | 281° |
| 2026-05-06 16:17 | 49.96283 | 7.10931 | 25706 ft | 416 kts | 281° |
| 2026-05-06 16:17 | 49.96938 | 7.06549 | 26022 ft | 418 kts | 281° |
| 2026-05-06 16:18 | 49.97595 | 7.02123 | 26327 ft | 420 kts | 281° |
| 2026-05-06 16:18 | 49.98253 | 6.97687 | 26610 ft | 422 kts | 281° |
| 2026-05-06 16:18 | 49.98901 | 6.93228 | 26913 ft | 424 kts | 278° |
| 2026-05-06 16:18 | 49.99232 | 6.88679 | 27221 ft | 423 kts | 269° |
| 2026-05-06 16:19 | 49.99155 | 6.84117 | 27520 ft | 424 kts | 265° |
| 2026-05-06 16:19 | 49.99017 | 6.79578 | 27782 ft | 426 kts | 265° |
| 2026-05-06 16:19 | 49.98877 | 6.74967 | 28054 ft | 428 kts | 265° |
| 2026-05-06 16:19 | 49.98737 | 6.70339 | 28325 ft | 430 kts | 265° |
| 2026-05-06 16:20 | 49.98595 | 6.65677 | 28587 ft | 432 kts | 265° |
| 2026-05-06 16:20 | 49.98447 | 6.61016 | 28833 ft | 433 kts | 263° |
| 2026-05-06 16:20 | 49.98011 | 6.56392 | 29087 ft | 432 kts | 254° |
| 2026-05-06 16:20 | 49.97121 | 6.51952 | 29321 ft | 431 kts | 245° |
| 2026-05-06 16:21 | 49.95926 | 6.47664 | 29542 ft | 433 kts | 244° |
| 2026-05-06 16:21 | 49.94716 | 6.43358 | 29753 ft | 435 kts | 244° |
| 2026-05-06 16:21 | 49.93502 | 6.39036 | 29949 ft | 437 kts | 244° |
| 2026-05-06 16:21 | 49.92285 | 6.34709 | 30134 ft | 439 kts | 244° |
| 2026-05-06 16:22 | 49.91059 | 6.30359 | 30318 ft | 440 kts | 244° |
| 2026-05-06 16:22 | 49.89828 | 6.26013 | 30482 ft | 441 kts | 243° |
| 2026-05-06 16:22 | 49.88562 | 6.21668 | 30703 ft | 442 kts | 243° |
| 2026-05-06 16:22 | 49.87328 | 6.17372 | 30973 ft | 441 kts | 244° |
| 2026-05-06 16:23 | 49.85991 | 6.13037 | 31240 ft | 438 kts | 238° |
| 2026-05-06 16:23 | 49.84346 | 6.09089 | 31493 ft | 436 kts | 233° |
| 2026-05-06 16:23 | 49.82623 | 6.05302 | 31722 ft | 436 kts | 232° |
| 2026-05-06 16:23 | 49.80869 | 6.01472 | 31961 ft | 436 kts | 232° |
| 2026-05-06 16:24 | 49.79111 | 5.97655 | 32205 ft | 435 kts | 232° |
| 2026-05-06 16:24 | 49.77349 | 5.93847 | 32439 ft | 435 kts | 232° |
| 2026-05-06 16:24 | 49.75590 | 5.90043 | 32667 ft | 435 kts | 233° |
| 2026-05-06 16:24 | 49.74052 | 5.86003 | 32912 ft | 437 kts | 243° |
| 2026-05-06 16:25 | 49.72929 | 5.81637 | 33148 ft | 438 kts | 248° |
| 2026-05-06 16:25 | 49.71913 | 5.77182 | 33349 ft | 439 kts | 248° |
| 2026-05-06 16:25 | 49.70889 | 5.72748 | 33555 ft | 439 kts | 248° |
| 2026-05-06 16:25 | 49.69857 | 5.68321 | 33781 ft | 439 kts | 248° |
| 2026-05-06 16:26 | 49.68818 | 5.63887 | 33986 ft | 438 kts | 248° |
| 2026-05-06 16:26 | 49.67774 | 5.59453 | 34170 ft | 438 kts | 248° |
| 2026-05-06 16:26 | 49.66735 | 5.55035 | 34340 ft | 438 kts | 248° |
| 2026-05-06 16:26 | 49.65695 | 5.50614 | 34511 ft | 438 kts | 248° |
| 2026-05-06 16:27 | 49.64657 | 5.46197 | 34681 ft | 437 kts | 248° |
| 2026-05-06 16:27 | 49.63617 | 5.41792 | 34822 ft | 438 kts | 248° |
| 2026-05-06 16:27 | 49.61577 | 5.33034 | 34871 ft | 432 kts | 249° |
| 2026-05-06 16:28 | 49.59693 | 5.24226 | 34867 ft | 433 kts | 250° |
| 2026-05-06 16:28 | 49.57949 | 5.15339 | 34875 ft | 434 kts | 252° |
| 2026-05-06 16:29 | 49.56423 | 5.06331 | 34879 ft | 435 kts | 253° |
| 2026-05-06 16:29 | 49.54908 | 4.97373 | 34880 ft | 434 kts | 253° |
| 2026-05-06 16:30 | 49.53576 | 4.89854 | 34875 ft | 435 kts | 252° |
| 2026-05-06 16:30 | 49.51684 | 4.79432 | 34881 ft | 435 kts | 252° |
| 2026-05-06 16:31 | 49.50051 | 4.70446 | 34881 ft | 436 kts | 252° |
| 2026-05-06 16:31 | 49.48420 | 4.61470 | 34887 ft | 436 kts | 252° |
| 2026-05-06 16:32 | 49.46786 | 4.52477 | 34887 ft | 437 kts | 252° |
| 2026-05-06 16:32 | 49.45135 | 4.43497 | 34891 ft | 437 kts | 252° |
| 2026-05-06 16:33 | 49.43472 | 4.34511 | 34888 ft | 437 kts | 252° |
| 2026-05-06 16:34 | 49.40980 | 4.21019 | 34895 ft | 438 kts | 252° |
| 2026-05-06 16:34 | 49.39304 | 4.12024 | 34894 ft | 438 kts | 252° |
| 2026-05-06 16:35 | 49.37614 | 4.03034 | 34901 ft | 439 kts | 252° |
| 2026-05-06 16:35 | 49.35958 | 3.94012 | 34900 ft | 439 kts | 254° |
| 2026-05-06 16:36 | 49.34627 | 3.84867 | 34897 ft | 440 kts | 257° |
| 2026-05-06 16:36 | 49.33417 | 3.75648 | 34898 ft | 440 kts | 256° |
| 2026-05-06 16:37 | 49.32147 | 3.66468 | 34897 ft | 440 kts | 256° |
| 2026-05-06 16:37 | 49.30808 | 3.57303 | 34902 ft | 441 kts | 255° |
| 2026-05-06 16:38 | 49.29455 | 3.48143 | 34910 ft | 440 kts | 255° |
| 2026-05-06 16:38 | 49.28104 | 3.38988 | 34908 ft | 440 kts | 255° |
| 2026-05-06 16:39 | 49.26753 | 3.29845 | 34905 ft | 441 kts | 255° |
| 2026-05-06 16:39 | 49.25405 | 3.20752 | 34904 ft | 441 kts | 255° |
| 2026-05-06 16:40 | 49.24036 | 3.11598 | 34902 ft | 441 kts | 255° |
| 2026-05-06 16:40 | 49.22654 | 3.02455 | 34901 ft | 441 kts | 255° |
| 2026-05-06 16:41 | 49.21271 | 2.93304 | 34909 ft | 441 kts | 255° |
| 2026-05-06 16:41 | 49.19884 | 2.84160 | 34910 ft | 442 kts | 255° |
| 2026-05-06 16:42 | 49.18485 | 2.75005 | 34914 ft | 442 kts | 255° |
| 2026-05-06 16:42 | 49.17074 | 2.65858 | 34914 ft | 442 kts | 255° |
| 2026-05-06 16:43 | 49.15652 | 2.56717 | 34919 ft | 442 kts | 255° |
| 2026-05-06 16:43 | 49.14236 | 2.47600 | 34921 ft | 442 kts | 255° |
| 2026-05-06 16:44 | 49.12862 | 2.38411 | 34927 ft | 443 kts | 260° |
| 2026-05-06 16:44 | 49.12006 | 2.29102 | 34948 ft | 444 kts | 261° |
| 2026-05-06 16:45 | 49.11145 | 2.19777 | 34960 ft | 444 kts | 260° |
| 2026-05-06 16:45 | 49.10263 | 2.10458 | 34959 ft | 444 kts | 260° |
| 2026-05-06 16:46 | 49.08899 | 2.01337 | 34957 ft | 440 kts | 246° |
| 2026-05-06 16:46 | 49.06389 | 1.92894 | 34959 ft | 440 kts | 243° |
| 2026-05-06 16:47 | 49.03834 | 1.84407 | 34959 ft | 440 kts | 244° |
| 2026-05-06 16:47 | 49.01278 | 1.75922 | 34954 ft | 441 kts | 244° |
| 2026-05-06 16:48 | 48.98705 | 1.67430 | 34953 ft | 441 kts | 243° |
| 2026-05-06 16:48 | 48.96123 | 1.58943 | 34951 ft | 442 kts | 244° |
| 2026-05-06 16:49 | 48.93540 | 1.50466 | 34953 ft | 442 kts | 243° |
| 2026-05-06 16:49 | 48.90932 | 1.41964 | 34953 ft | 443 kts | 243° |
| 2026-05-06 16:50 | 48.88317 | 1.33467 | 34951 ft | 443 kts | 243° |
| 2026-05-06 16:50 | 48.85703 | 1.24979 | 34952 ft | 444 kts | 243° |
| 2026-05-06 16:51 | 48.83076 | 1.16494 | 34948 ft | 444 kts | 243° |
| 2026-05-06 16:51 | 48.80459 | 1.08076 | 34946 ft | 444 kts | 243° |
| 2026-05-06 16:52 | 48.77816 | 0.99612 | 34941 ft | 444 kts | 243° |
| 2026-05-06 16:52 | 48.75175 | 0.91153 | 34950 ft | 444 kts | 243° |
| 2026-05-06 16:53 | 48.72106 | 0.83064 | 34943 ft | 442 kts | 237° |
| 2026-05-06 16:53 | 48.68891 | 0.75125 | 34955 ft | 442 kts | 237° |
| 2026-05-06 16:54 | 48.65672 | 0.67184 | 34955 ft | 442 kts | 236° |
| 2026-05-06 16:54 | 48.62450 | 0.59272 | 34953 ft | 442 kts | 236° |
| 2026-05-06 16:55 | 48.59226 | 0.51374 | 34951 ft | 441 kts | 236° |
| 2026-05-06 16:55 | 48.56004 | 0.43487 | 34956 ft | 441 kts | 236° |
| 2026-05-06 16:56 | 48.52793 | 0.35660 | 34953 ft | 441 kts | 236° |
| 2026-05-06 16:56 | 48.49559 | 0.27823 | 34954 ft | 441 kts | 236° |
| 2026-05-06 16:57 | 48.46309 | 0.19960 | 34961 ft | 441 kts | 236° |
| 2026-05-06 16:57 | 48.43051 | 0.12099 | 34962 ft | 442 kts | 236° |
| 2026-05-06 16:58 | 48.39792 | 0.04252 | 34970 ft | 442 kts | 236° |
| 2026-05-06 16:58 | 48.36526 | -0.03579 | 34974 ft | 442 kts | 235° |
| 2026-05-06 16:59 | 48.33045 | -0.11164 | 34965 ft | 441 kts | 231° |
| 2026-05-06 16:59 | 48.29309 | -0.18505 | 34968 ft | 441 kts | 230° |
| 2026-05-06 17:00 | 48.25563 | -0.25797 | 34963 ft | 442 kts | 230° |
| 2026-05-06 17:00 | 48.21830 | -0.33129 | 34963 ft | 442 kts | 230° |
| 2026-05-06 17:01 | 48.18724 | -0.39217 | 34967 ft | 443 kts | 230° |
| 2026-05-06 17:01 | 48.14367 | -0.47732 | 34977 ft | 443 kts | 230° |
| 2026-05-06 17:02 | 48.10615 | -0.55035 | 34983 ft | 443 kts | 230° |
| 2026-05-06 17:02 | 48.07486 | -0.61106 | 34972 ft | 443 kts | 230° |
| 2026-05-06 17:03 | 48.03725 | -0.68386 | 34970 ft | 442 kts | 230° |
| 2026-05-06 17:03 | 47.99963 | -0.75661 | 34981 ft | 442 kts | 230° |
| 2026-05-06 17:04 | 47.96201 | -0.82905 | 34974 ft | 442 kts | 230° |
| 2026-05-06 17:04 | 47.92432 | -0.90152 | 34975 ft | 442 kts | 230° |
| 2026-05-06 17:05 | 47.88663 | -0.97375 | 34970 ft | 442 kts | 230° |
| 2026-05-06 17:05 | 47.84886 | -1.04599 | 34977 ft | 442 kts | 230° |
| 2026-05-06 17:06 | 47.81107 | -1.11796 | 34967 ft | 441 kts | 230° |
| 2026-05-06 17:06 | 47.77329 | -1.18975 | 34964 ft | 441 kts | 230° |
| 2026-05-06 17:07 | 47.74316 | -1.24691 | 34957 ft | 441 kts | 230° |
| 2026-05-06 17:07 | 47.70519 | -1.31887 | 34961 ft | 442 kts | 230° |
| 2026-05-06 17:08 | 47.66724 | -1.39058 | 34957 ft | 441 kts | 230° |
| 2026-05-06 17:08 | 47.63226 | -1.45647 | 34951 ft | 442 kts | 230° |
| 2026-05-06 17:09 | 47.59805 | -1.51764 | 34937 ft | 442 kts | 229° |
| 2026-05-06 17:09 | 47.55838 | -1.58709 | 34949 ft | 441 kts | 227° |
| 2026-05-06 17:10 | 47.51733 | -1.65459 | 34953 ft | 441 kts | 226° |
| 2026-05-06 17:10 | 47.47592 | -1.72143 | 34957 ft | 441 kts | 226° |
| 2026-05-06 17:11 | 47.43462 | -1.78867 | 34959 ft | 441 kts | 226° |
| 2026-05-06 17:11 | 47.39351 | -1.85597 | 34970 ft | 441 kts | 226° |
| 2026-05-06 17:12 | 47.35151 | -1.92171 | 34973 ft | 439 kts | 219° |
| 2026-05-06 17:12 | 47.30104 | -1.97185 | 34964 ft | 437 kts | 210° |
| 2026-05-06 17:13 | 47.24900 | -2.01836 | 34961 ft | 437 kts | 210° |
| 2026-05-06 17:13 | 47.19734 | -2.06454 | 34965 ft | 437 kts | 210° |
| 2026-05-06 17:14 | 47.14527 | -2.11092 | 34965 ft | 437 kts | 210° |
| 2026-05-06 17:14 | 47.09329 | -2.15713 | 34964 ft | 437 kts | 210° |
| 2026-05-06 17:15 | 47.04115 | -2.20343 | 34964 ft | 437 kts | 210° |
| 2026-05-06 17:15 | 46.98909 | -2.24950 | 34964 ft | 438 kts | 210° |
| 2026-05-06 17:16 | 46.93676 | -2.29553 | 34972 ft | 441 kts | 210° |
| 2026-05-06 17:16 | 46.88384 | -2.34199 | 34979 ft | 445 kts | 210° |
| 2026-05-06 17:17 | 46.83077 | -2.38864 | 34981 ft | 446 kts | 211° |
| 2026-05-06 17:17 | 46.77757 | -2.43547 | 34981 ft | 446 kts | 211° |
| 2026-05-06 17:18 | 46.72474 | -2.48176 | 34980 ft | 446 kts | 211° |
| 2026-05-06 17:18 | 46.67144 | -2.52838 | 34984 ft | 447 kts | 211° |
| 2026-05-06 17:19 | 46.61813 | -2.57485 | 34986 ft | 447 kts | 211° |
| 2026-05-06 17:19 | 46.56468 | -2.62119 | 34989 ft | 447 kts | 211° |
| 2026-05-06 17:20 | 46.51123 | -2.66752 | 34990 ft | 447 kts | 211° |
| 2026-05-06 17:20 | 46.45768 | -2.71386 | 34990 ft | 447 kts | 211° |
| 2026-05-06 17:21 | 46.40422 | -2.76001 | 34994 ft | 447 kts | 211° |
| 2026-05-06 17:21 | 46.35073 | -2.80607 | 34991 ft | 447 kts | 211° |
| 2026-05-06 17:22 | 46.29993 | -2.84979 | 34993 ft | 447 kts | 211° |
| 2026-05-06 17:22 | 46.24860 | -2.90029 | 34988 ft | 447 kts | 221° |
| 2026-05-06 17:23 | 46.20128 | -2.95839 | 34997 ft | 447 kts | 221° |
| 2026-05-06 17:23 | 46.15411 | -3.01589 | 35000 ft | 446 kts | 221° |
| 2026-05-06 17:24 | 46.10656 | -3.07363 | 34999 ft | 446 kts | 220° |
| 2026-05-06 17:24 | 46.05901 | -3.13127 | 35001 ft | 446 kts | 221° |
| 2026-05-06 17:25 | 46.01149 | -3.18888 | 35012 ft | 446 kts | 221° |
| 2026-05-06 17:25 | 45.96402 | -3.24624 | 35006 ft | 446 kts | 221° |
| 2026-05-06 17:26 | 45.91651 | -3.30353 | 35006 ft | 446 kts | 221° |
| 2026-05-06 17:26 | 45.86935 | -3.36039 | 35014 ft | 445 kts | 221° |
| 2026-05-06 17:27 | 45.82156 | -3.41783 | 35018 ft | 445 kts | 221° |
| 2026-05-06 17:27 | 45.77430 | -3.47427 | 35018 ft | 445 kts | 221° |
| 2026-05-06 17:28 | 45.72669 | -3.53106 | 35014 ft | 445 kts | 221° |
| 2026-05-06 17:28 | 45.67977 | -3.58700 | 35002 ft | 437 kts | 221° |
| 2026-05-06 17:29 | 45.63305 | -3.64266 | 35001 ft | 437 kts | 221° |
| 2026-05-06 17:29 | 45.58636 | -3.69810 | 34997 ft | 436 kts | 221° |
| 2026-05-06 17:30 | 45.53963 | -3.75337 | 35008 ft | 436 kts | 221° |
| 2026-05-06 17:30 | 45.49296 | -3.80850 | 35009 ft | 436 kts | 221° |
| 2026-05-06 17:31 | 45.44652 | -3.86313 | 35020 ft | 435 kts | 221° |
| 2026-05-06 17:31 | 45.40002 | -3.91780 | 35019 ft | 431 kts | 221° |
| 2026-05-06 17:32 | 45.35377 | -3.97210 | 35025 ft | 430 kts | 221° |
| 2026-05-06 17:32 | 45.30765 | -4.02620 | 35023 ft | 430 kts | 221° |
| 2026-05-06 17:33 | 45.26156 | -4.08019 | 35022 ft | 429 kts | 221° |
| 2026-05-06 17:33 | 45.21537 | -4.13403 | 35019 ft | 429 kts | 221° |
| 2026-05-06 17:34 | 45.16917 | -4.18771 | 35022 ft | 429 kts | 221° |
| 2026-05-06 17:34 | 45.12294 | -4.24136 | 35014 ft | 431 kts | 221° |
| 2026-05-06 17:35 | 45.07605 | -4.29571 | 35011 ft | 440 kts | 221° |
| 2026-05-06 17:35 | 45.02813 | -4.35105 | 35012 ft | 448 kts | 221° |
| 2026-05-06 17:36 | 44.95555 | -4.43478 | 35013 ft | 452 kts | 220° |
| 2026-05-06 17:36 | 44.90676 | -4.49094 | 35013 ft | 452 kts | 220° |
| 2026-05-06 17:37 | 44.85792 | -4.54690 | 35013 ft | 451 kts | 220° |
| 2026-05-06 17:37 | 44.80920 | -4.60259 | 35013 ft | 451 kts | 220° |
| 2026-05-06 17:38 | 44.76084 | -4.65787 | 35011 ft | 451 kts | 220° |
| 2026-05-06 17:38 | 44.71211 | -4.71328 | 35008 ft | 450 kts | 220° |
| 2026-05-06 17:39 | 44.66341 | -4.76853 | 35008 ft | 450 kts | 220° |
| 2026-05-06 17:39 | 44.61466 | -4.82382 | 35005 ft | 450 kts | 220° |
| 2026-05-06 17:40 | 44.56599 | -4.87903 | 35006 ft | 449 kts | 220° |
| 2026-05-06 17:40 | 44.51733 | -4.93410 | 35005 ft | 449 kts | 220° |
| 2026-05-06 17:41 | 44.46779 | -4.98749 | 35006 ft | 449 kts | 217° |
| 2026-05-06 17:41 | 44.41673 | -5.03797 | 35005 ft | 449 kts | 216° |
| 2026-05-06 17:42 | 44.36546 | -5.08806 | 35000 ft | 449 kts | 217° |
| 2026-05-06 17:42 | 44.31491 | -5.13842 | 34998 ft | 449 kts | 217° |
| 2026-05-06 17:43 | 44.26416 | -5.18933 | 34999 ft | 449 kts | 217° |
| 2026-05-06 17:43 | 44.21341 | -5.24016 | 35004 ft | 449 kts | 217° |
| 2026-05-06 17:44 | 44.16247 | -5.29080 | 35008 ft | 449 kts | 217° |
| 2026-05-06 17:44 | 44.11153 | -5.34124 | 35009 ft | 449 kts | 217° |
| 2026-05-06 17:45 | 44.06099 | -5.39133 | 35015 ft | 449 kts | 217° |
| 2026-05-06 17:45 | 44.01014 | -5.44158 | 35010 ft | 448 kts | 217° |
| 2026-05-06 17:46 | 43.95927 | -5.49163 | 35010 ft | 448 kts | 217° |
| 2026-05-06 17:46 | 43.90837 | -5.54171 | 35009 ft | 448 kts | 217° |
| 2026-05-06 17:47 | 43.85759 | -5.59163 | 35012 ft | 448 kts | 217° |
| 2026-05-06 17:47 | 43.80671 | -5.64144 | 35010 ft | 448 kts | 217° |
| 2026-05-06 17:48 | 43.75587 | -5.69115 | 35021 ft | 447 kts | 217° |
| 2026-05-06 17:48 | 43.70505 | -5.74073 | 35018 ft | 447 kts | 217° |
| 2026-05-06 17:49 | 43.65421 | -5.79026 | 35023 ft | 447 kts | 217° |
| 2026-05-06 17:49 | 43.60338 | -5.83955 | 35026 ft | 447 kts | 217° |
| 2026-05-06 17:50 | 43.55277 | -5.88853 | 35029 ft | 446 kts | 217° |
| 2026-05-06 17:50 | 43.50205 | -5.93775 | 35029 ft | 446 kts | 217° |
| 2026-05-06 17:51 | 43.45122 | -5.98687 | 35024 ft | 446 kts | 216° |
| 2026-05-06 17:51 | 43.40857 | -6.02787 | 35024 ft | 446 kts | 216° |
| 2026-05-06 17:52 | 43.35775 | -6.07675 | 35025 ft | 446 kts | 216° |
| 2026-05-06 17:52 | 43.30692 | -6.12555 | 35020 ft | 445 kts | 216° |
| 2026-05-06 17:53 | 43.25610 | -6.17421 | 35010 ft | 445 kts | 216° |
| 2026-05-06 17:53 | 43.20525 | -6.22289 | 35002 ft | 445 kts | 216° |
| 2026-05-06 17:54 | 43.15445 | -6.27148 | 34995 ft | 445 kts | 216° |
| 2026-05-06 17:54 | 43.10361 | -6.31988 | 34994 ft | 445 kts | 216° |
| 2026-05-06 17:55 | 43.05315 | -6.36771 | 34987 ft | 444 kts | 216° |
| 2026-05-06 17:55 | 43.00230 | -6.41583 | 34978 ft | 444 kts | 216° |
| 2026-05-06 17:56 | 42.95151 | -6.46384 | 34973 ft | 444 kts | 216° |
| 2026-05-06 17:56 | 42.90078 | -6.51183 | 34963 ft | 444 kts | 216° |
| 2026-05-06 17:57 | 42.85008 | -6.55971 | 34963 ft | 443 kts | 216° |
| 2026-05-06 17:57 | 42.79901 | -6.60768 | 34956 ft | 443 kts | 216° |
| 2026-05-06 17:58 | 42.74866 | -6.65485 | 34949 ft | 442 kts | 216° |
| 2026-05-06 17:58 | 42.69799 | -6.70227 | 34946 ft | 441 kts | 216° |
| 2026-05-06 17:59 | 42.64745 | -6.74959 | 34943 ft | 441 kts | 216° |
| 2026-05-06 17:59 | 42.59695 | -6.79671 | 34943 ft | 440 kts | 216° |
| 2026-05-06 18:00 | 42.54653 | -6.84354 | 34947 ft | 440 kts | 216° |
| 2026-05-06 18:00 | 42.49603 | -6.89033 | 34946 ft | 439 kts | 216° |
| 2026-05-06 18:01 | 42.44562 | -6.93709 | 34942 ft | 439 kts | 216° |
| 2026-05-06 18:01 | 42.39588 | -6.98321 | 34728 ft | 420 kts | 216° |
| 2026-05-06 18:02 | 42.37222 | -7.00506 | 34238 ft | 405 kts | 216° |
| 2026-05-06 18:02 | 42.34897 | -7.02649 | 33536 ft | 395 kts | 216° |
| 2026-05-06 18:02 | 42.32642 | -7.04725 | 32694 ft | 388 kts | 216° |
| 2026-05-06 18:02 | 42.30430 | -7.06774 | 31825 ft | 383 kts | 217° |
| 2026-05-06 18:03 | 42.28401 | -7.09062 | 30980 ft | 378 kts | 225° |
| 2026-05-06 18:03 | 42.26650 | -7.11683 | 30143 ft | 374 kts | 232° |
| 2026-05-06 18:03 | 42.25184 | -7.14580 | 29264 ft | 375 kts | 238° |
| 2026-05-06 18:03 | 42.23823 | -7.17564 | 28743 ft | 372 kts | 238° |
| 2026-05-06 18:04 | 42.22466 | -7.20512 | 28161 ft | 367 kts | 238° |
| 2026-05-06 18:04 | 42.21122 | -7.23423 | 27507 ft | 364 kts | 238° |
| 2026-05-06 18:04 | 42.19791 | -7.26310 | 26886 ft | 361 kts | 238° |
| 2026-05-06 18:04 | 42.18478 | -7.29158 | 26364 ft | 354 kts | 238° |
| 2026-05-06 18:05 | 42.17220 | -7.31879 | 26244 ft | 337 kts | 238° |
| 2026-05-06 18:05 | 42.16002 | -7.34506 | 25997 ft | 325 kts | 238° |
| 2026-05-06 18:05 | 42.14812 | -7.37064 | 25541 ft | 319 kts | 238° |
| 2026-05-06 18:05 | 42.13639 | -7.39586 | 25045 ft | 316 kts | 238° |
| 2026-05-06 18:06 | 42.12479 | -7.42086 | 24551 ft | 313 kts | 238° |
| 2026-05-06 18:06 | 42.11331 | -7.44559 | 24066 ft | 311 kts | 238° |
| 2026-05-06 18:06 | 42.10189 | -7.47016 | 23580 ft | 308 kts | 238° |
| 2026-05-06 18:06 | 42.09056 | -7.49451 | 23053 ft | 306 kts | 238° |
| 2026-05-06 18:07 | 42.07928 | -7.51873 | 22396 ft | 307 kts | 238° |
| 2026-05-06 18:07 | 42.06789 | -7.54323 | 21845 ft | 308 kts | 238° |
| 2026-05-06 18:07 | 42.05661 | -7.56753 | 21204 ft | 305 kts | 238° |
| 2026-05-06 18:07 | 42.04542 | -7.59160 | 20553 ft | 302 kts | 237° |
| 2026-05-06 18:08 | 42.03430 | -7.61547 | 19919 ft | 300 kts | 237° |
| 2026-05-06 18:08 | 42.02324 | -7.63913 | 19297 ft | 297 kts | 237° |
| 2026-05-06 18:08 | 42.01227 | -7.66255 | 18713 ft | 295 kts | 237° |
| 2026-05-06 18:08 | 42.00139 | -7.68578 | 18127 ft | 293 kts | 237° |
| 2026-05-06 18:09 | 41.99049 | -7.70903 | 17655 ft | 293 kts | 237° |
| 2026-05-06 18:09 | 41.97967 | -7.73213 | 17319 ft | 291 kts | 237° |
| 2026-05-06 18:09 | 41.96892 | -7.75506 | 16957 ft | 289 kts | 237° |
| 2026-05-06 18:09 | 41.95824 | -7.77781 | 16596 ft | 288 kts | 237° |
| 2026-05-06 18:10 | 41.94760 | -7.80048 | 16262 ft | 286 kts | 237° |
| 2026-05-06 18:10 | 41.93680 | -7.82349 | 16000 ft | 303 kts | 237° |
| 2026-05-06 18:10 | 41.92539 | -7.84780 | 15737 ft | 309 kts | 237° |
| 2026-05-06 18:10 | 41.91396 | -7.87218 | 15490 ft | 307 kts | 237° |
| 2026-05-06 18:11 | 41.90257 | -7.89640 | 15247 ft | 306 kts | 237° |
| 2026-05-06 18:11 | 41.89120 | -7.92051 | 14999 ft | 306 kts | 237° |
| 2026-05-06 18:11 | 41.87983 | -7.94454 | 14757 ft | 304 kts | 237° |
| 2026-05-06 18:11 | 41.86848 | -7.96846 | 14512 ft | 303 kts | 237° |
| 2026-05-06 18:12 | 41.85730 | -7.99198 | 14272 ft | 302 kts | 237° |
| 2026-05-06 18:12 | 41.84602 | -8.01573 | 14023 ft | 301 kts | 237° |
| 2026-05-06 18:12 | 41.83481 | -8.03942 | 13791 ft | 300 kts | 237° |
| 2026-05-06 18:12 | 41.82306 | -8.06245 | 13540 ft | 299 kts | 230° |
| 2026-05-06 18:13 | 41.80865 | -8.08242 | 13263 ft | 298 kts | 220° |
| 2026-05-06 18:13 | 41.79188 | -8.09863 | 12998 ft | 297 kts | 210° |
| 2026-05-06 18:13 | 41.77385 | -8.11207 | 12733 ft | 296 kts | 209° |
| 2026-05-06 18:13 | 41.75579 | -8.12553 | 12466 ft | 304 kts | 209° |
| 2026-05-06 18:14 | 41.73711 | -8.13950 | 12202 ft | 308 kts | 209° |
| 2026-05-06 18:14 | 41.71850 | -8.15344 | 11945 ft | 306 kts | 209° |
| 2026-05-06 18:14 | 41.69954 | -8.16631 | 11690 ft | 304 kts | 201° |
| 2026-05-06 18:14 | 41.67961 | -8.17570 | 11434 ft | 304 kts | 198° |
| 2026-05-06 18:15 | 41.65969 | -8.18482 | 11182 ft | 302 kts | 198° |
| 2026-05-06 18:15 | 41.63985 | -8.19389 | 10933 ft | 300 kts | 198° |
| 2026-05-06 18:15 | 41.62011 | -8.20290 | 10679 ft | 299 kts | 198° |
| 2026-05-06 18:15 | 41.60045 | -8.21188 | 10432 ft | 298 kts | 198° |
| 2026-05-06 18:16 | 41.58087 | -8.22084 | 10192 ft | 296 kts | 198° |
| 2026-05-06 18:16 | 41.56146 | -8.22972 | 9951 ft | 295 kts | 198° |
| 2026-05-06 18:16 | 41.54207 | -8.23859 | 9794 ft | 294 kts | 198° |
| 2026-05-06 18:16 | 41.52272 | -8.24743 | 9658 ft | 294 kts | 198° |
| 2026-05-06 18:17 | 41.50369 | -8.25613 | 9528 ft | 281 kts | 198° |
| 2026-05-06 18:17 | 41.48582 | -8.26428 | 9384 ft | 268 kts | 198° |
| 2026-05-06 18:17 | 41.46819 | -8.27230 | 9256 ft | 268 kts | 198° |
| 2026-05-06 18:17 | 41.45054 | -8.28031 | 9121 ft | 268 kts | 198° |
| 2026-05-06 18:18 | 41.43290 | -8.28832 | 8986 ft | 267 kts | 198° |
| 2026-05-06 18:18 | 41.41556 | -8.29619 | 8863 ft | 267 kts | 198° |
| 2026-05-06 18:18 | 41.39798 | -8.30420 | 8737 ft | 266 kts | 198° |
| 2026-05-06 18:18 | 41.38025 | -8.31226 | 8543 ft | 266 kts | 198° |
| 2026-05-06 18:19 | 41.36297 | -8.32011 | 8337 ft | 265 kts | 198° |
| 2026-05-06 18:19 | 41.34856 | -8.32668 | 8166 ft | 264 kts | 198° |
| 2026-05-06 18:19 | 41.33117 | -8.33460 | 7962 ft | 264 kts | 198° |
| 2026-05-06 18:19 | 41.31376 | -8.34247 | 7753 ft | 264 kts | 198° |
| 2026-05-06 18:20 | 41.29634 | -8.35035 | 7552 ft | 264 kts | 198° |
| 2026-05-06 18:20 | 41.27899 | -8.35818 | 7357 ft | 264 kts | 198° |
| 2026-05-06 18:20 | 41.26163 | -8.36598 | 7158 ft | 263 kts | 198° |
| 2026-05-06 18:20 | 41.24429 | -8.37381 | 6965 ft | 263 kts | 198° |
| 2026-05-06 18:21 | 41.22700 | -8.38166 | 6762 ft | 263 kts | 199° |
| 2026-05-06 18:21 | 41.20970 | -8.38949 | 6557 ft | 263 kts | 199° |
| 2026-05-06 18:21 | 41.19240 | -8.39732 | 6371 ft | 263 kts | 199° |
| 2026-05-06 18:21 | 41.17511 | -8.40511 | 6164 ft | 262 kts | 199° |
| 2026-05-06 18:22 | 41.15782 | -8.41289 | 5966 ft | 262 kts | 199° |
| 2026-05-06 18:22 | 41.14056 | -8.42065 | 5749 ft | 262 kts | 199° |
| 2026-05-06 18:22 | 41.12332 | -8.42842 | 5548 ft | 262 kts | 199° |
| 2026-05-06 18:22 | 41.10609 | -8.43618 | 5350 ft | 262 kts | 199° |
| 2026-05-06 18:23 | 41.08887 | -8.44389 | 5145 ft | 261 kts | 199° |
| 2026-05-06 18:23 | 41.07160 | -8.45164 | 4961 ft | 262 kts | 199° |
| 2026-05-06 18:23 | 41.05437 | -8.45941 | 4757 ft | 261 kts | 199° |
| 2026-05-06 18:23 | 41.03715 | -8.46715 | 4548 ft | 261 kts | 199° |
| 2026-05-06 18:24 | 41.02036 | -8.47621 | 4344 ft | 262 kts | 213° |
| 2026-05-06 18:24 | 41.00703 | -8.49176 | 4135 ft | 251 kts | 235° |
| 2026-05-06 18:24 | 40.99916 | -8.51179 | 3996 ft | 247 kts | 256° |
| 2026-05-06 18:24 | 40.99565 | -8.53382 | 3966 ft | 245 kts | 261° |
| 2026-05-06 18:25 | 40.99241 | -8.55593 | 3968 ft | 245 kts | 261° |
| 2026-05-06 18:25 | 40.98929 | -8.57806 | 3971 ft | 244 kts | 266° |
| 2026-05-06 18:25 | 40.99189 | -8.59959 | 3974 ft | 237 kts | 301° |
| 2026-05-06 18:25 | 41.00284 | -8.61506 | 3974 ft | 224 kts | 333° |
| 2026-05-06 18:26 | 41.01685 | -8.62068 | 3979 ft | 201 kts | 350° |
| 2026-05-06 18:26 | 41.03064 | -8.62416 | 3879 ft | 201 kts | 349° |
| 2026-05-06 18:26 | 41.04429 | -8.62773 | 3642 ft | 199 kts | 349° |
| 2026-05-06 18:26 | 41.05777 | -8.63131 | 3431 ft | 197 kts | 348° |
| 2026-05-06 18:27 | 41.07109 | -8.63483 | 3197 ft | 193 kts | 349° |
| 2026-05-06 18:27 | 41.08424 | -8.63826 | 3051 ft | 189 kts | 349° |
| 2026-05-06 18:27 | 41.09672 | -8.64151 | 2959 ft | 177 kts | 349° |
| 2026-05-06 18:27 | 41.10877 | -8.64467 | 2701 ft | 178 kts | 348° |
| 2026-05-06 18:28 | 41.12078 | -8.64784 | 2455 ft | 174 kts | 348° |
| 2026-05-06 18:28 | 41.13247 | -8.65088 | 2221 ft | 167 kts | 349° |
| 2026-05-06 18:28 | 41.14348 | -8.65374 | 2004 ft | 155 kts | 348° |
| 2026-05-06 18:28 | 41.15352 | -8.65637 | 1844 ft | 140 kts | 348° |
| 2026-05-06 18:29 | 41.16275 | -8.65878 | 1651 ft | 129 kts | 348° |
| 2026-05-06 18:29 | 41.17138 | -8.66104 | 1470 ft | 126 kts | 349° |
| 2026-05-06 18:29 | 41.17996 | -8.66329 | 1307 ft | 125 kts | 349° |
| 2026-05-06 18:29 | 41.18850 | -8.66549 | 1114 ft | 124 kts | 347° |
| 2026-05-06 18:30 | 41.19710 | -8.66788 | 958 ft | 128 kts | 348° |
| 2026-05-06 18:30 | 41.20590 | -8.67023 | 782 ft | 129 kts | 347° |
| 2026-05-06 18:30 | 41.21460 | -8.67254 | 598 ft | 127 kts | 348° |
| 2026-05-06 18:30 | 41.22321 | -8.67473 | 454 ft | 127 kts | 347° |
| 2026-05-06 18:31 | 41.23193 | -8.67702 | 299 ft | 127 kts | 346° |
| 2026-05-06 18:31 | 41.24021 | -8.67921 | 217 ft | 105 kts | 346° |
| 2026-05-06 18:31 | 41.24496 | -8.68046 | 207 ft | 40 kts | 348° |
| 2026-05-06 18:31 | 41.24609 | -8.68074 | 207 ft | 2 kts | 349° |
| 2026-05-06 18:32 | 41.24671 | -8.68089 | 201 ft | 19 kts | 350° |
| 2026-05-06 18:32 | 41.24802 | -8.68126 | 195 ft | 19 kts | 350° |
| 2026-05-06 18:32 | 41.24936 | -8.68160 | 194 ft | 21 kts | 351° |
| 2026-05-06 18:32 | 41.25094 | -8.68181 | 182 ft | 23 kts | 16° |
| 2026-05-06 18:33 | 41.25245 | -8.68123 | 178 ft | 22 kts | 18° |
| 2026-05-06 18:33 | 41.25291 | -8.68082 | 176 ft | 0 kts | 59° |
| 2026-05-06 18:33 | 41.25294 | -8.68076 | 175 ft | 2 kts | 60° |
| 2026-05-06 18:33 | 41.25294 | -8.68075 | 175 ft | 0 kts | 61° |
| 2026-05-06 18:34 | 41.25295 | -8.68075 | 175 ft | 0 kts | 61° |
| 2026-05-06 18:34 | 41.25295 | -8.68068 | 175 ft | 4 kts | 81° |
| 2026-05-06 18:34 | 41.25243 | -8.68012 | 179 ft | 9 kts | 175° |
| 2026-05-06 18:35 | 41.25163 | -8.67990 | 183 ft | 20 kts | 169° |
| 2026-05-06 18:35 | 41.25036 | -8.67956 | 192 ft | 17 kts | 169° |
| 2026-05-06 18:35 | 41.24928 | -8.67929 | 190 ft | 18 kts | 167° |
| 2026-05-06 18:35 | 41.24823 | -8.67864 | 201 ft | 13 kts | 152° |
| 2026-05-06 18:36 | 41.24747 | -8.67827 | 206 ft | 16 kts | 166° |
| 2026-05-06 18:36 | 41.24632 | -8.67794 | 211 ft | 14 kts | 173° |
| 2026-05-06 18:36 | 41.24547 | -8.67774 | 213 ft | 12 kts | 167° |
| 2026-05-06 18:36 | 41.24435 | -8.67744 | 220 ft | 18 kts | 170° |
| 2026-05-06 18:37 | 41.24306 | -8.67697 | 229 ft | 20 kts | 149° |
| 2026-05-06 18:37 | 41.24200 | -8.67578 | 236 ft | 21 kts | 163° |
| 2026-05-06 18:37 | 41.24030 | -8.67530 | 237 ft | 29 kts | 168° |
| 2026-05-06 18:37 | 41.23879 | -8.67491 | 237 ft | 20 kts | 169° |
| 2026-05-06 18:38 | 41.23753 | -8.67449 | 237 ft | 17 kts | 142° |
| 2026-05-06 18:38 | 41.23678 | -8.67345 | 237 ft | 15 kts | 152° |
| 2026-05-06 18:38 | 41.23595 | -8.67335 | 237 ft | 8 kts | 190° |
| 2026-05-06 18:38 | 41.23567 | -8.67303 | 237 ft | 5 kts | 109° |
| 2026-05-06 18:39 | 41.23557 | -8.67268 | 237 ft | 3 kts | 109° |
| 2026-05-06 18:39 | 41.23550 | -8.67238 | 237 ft | 3 kts | 109° |
| 2026-05-06 18:39 | 41.23547 | -8.67229 | 237 ft | 0 kts | 109° |